sensor_id;sensor_type;location;lat;lon;timestamp;pressure;altitude;pressure_sealevel;temperature;humidity
70103;BME280;57470;50.034;15.256;2023-07-22T00:01:31;99050.16;;;18.73;95.18
70103;BME280;57470;50.034;15.256;2023-07-22T00:03:57;99045.78;;;18.81;93.89
70103;BME280;57470;50.034;15.256;2023-07-22T00:06:23;99052.38;;;18.94;93.72
70103;BME280;57470;50.034;15.256;2023-07-22T00:08:50;99048.16;;;18.84;93.08
70103;BME280;57470;50.034;15.256;2023-07-22T00:11:15;99045.63;;;18.82;93.26
70103;BME280;57470;50.034;15.256;2023-07-22T00:13:40;99047.63;;;18.72;93.44
70103;BME280;57470;50.034;15.256;2023-07-22T00:16:06;99043.44;;;18.69;92.11
70103;BME280;57470;50.034;15.256;2023-07-22T00:18:33;99048.94;;;18.52;93.09
70103;BME280;57470;50.034;15.256;2023-07-22T00:20:59;99059.94;;;18.58;92.36
70103;BME280;57470;50.034;15.256;2023-07-22T00:23:24;99055.16;;;18.52;92.27
70103;BME280;57470;50.034;15.256;2023-07-22T00:25:50;99058.38;;;18.56;92.70
70103;BME280;57470;50.034;15.256;2023-07-22T00:28:15;99059.94;;;18.58;91.62
70103;BME280;57470;50.034;15.256;2023-07-22T00:30:41;99063.22;;;18.44;91.64
70103;BME280;57470;50.034;15.256;2023-07-22T00:33:07;99069.09;;;18.40;92.35
70103;BME280;57470;50.034;15.256;2023-07-22T00:35:33;99059.47;;;18.29;92.05
70103;BME280;57470;50.034;15.256;2023-07-22T00:38:00;99068.38;;;18.21;92.31
70103;BME280;57470;50.034;15.256;2023-07-22T00:40:27;99068.66;;;18.10;92.22
70103;BME280;57470;50.034;15.256;2023-07-22T00:42:52;99070.38;;;18.19;91.85
70103;BME280;57470;50.034;15.256;2023-07-22T00:45:17;99075.91;;;18.10;92.96
70103;BME280;57470;50.034;15.256;2023-07-22T00:47:44;99074.31;;;17.91;91.80
70103;BME280;57470;50.034;15.256;2023-07-22T00:50:10;99067.47;;;18.05;92.66
70103;BME280;57470;50.034;15.256;2023-07-22T00:52:37;99061.03;;;17.89;92.71
70103;BME280;57470;50.034;15.256;2023-07-22T00:55:03;99072.69;;;17.98;92.41
70103;BME280;57470;50.034;15.256;2023-07-22T00:57:30;99078.72;;;18.00;91.79
70103;BME280;57470;50.034;15.256;2023-07-22T00:59:55;99070.78;;;17.90;92.61
70103;BME280;57470;50.034;15.256;2023-07-22T01:02:21;99056.66;;;17.88;92.08
70103;BME280;57470;50.034;15.256;2023-07-22T01:04:49;99058.34;;;17.89;91.84
70103;BME280;57470;50.034;15.256;2023-07-22T01:07:15;99069.72;;;17.83;91.73
70103;BME280;57470;50.034;15.256;2023-07-22T01:09:42;99079.34;;;17.86;91.52
70103;BME280;57470;50.034;15.256;2023-07-22T01:12:08;99087.00;;;17.73;92.22
70103;BME280;57470;50.034;15.256;2023-07-22T01:14:39;99091.91;;;17.77;91.53
70103;BME280;57470;50.034;15.256;2023-07-22T01:17:08;99095.91;;;17.73;91.23
70103;BME280;57470;50.034;15.256;2023-07-22T01:19:33;99092.84;;;17.42;93.45
70103;BME280;57470;50.034;15.256;2023-07-22T01:22:04;99091.66;;;17.45;93.91
70103;BME280;57470;50.034;15.256;2023-07-22T01:24:31;99098.72;;;17.46;93.03
70103;BME280;57470;50.034;15.256;2023-07-22T01:26:57;99107.06;;;17.60;93.01
70103;BME280;57470;50.034;15.256;2023-07-22T01:29:24;99098.78;;;17.54;93.99
70103;BME280;57470;50.034;15.256;2023-07-22T01:31:51;99092.75;;;17.52;93.68
70103;BME280;57470;50.034;15.256;2023-07-22T01:34:18;99109.66;;;17.62;94.50
70103;BME280;57470;50.034;15.256;2023-07-22T01:36:45;99104.66;;;17.75;94.26
70103;BME280;57470;50.034;15.256;2023-07-22T01:39:12;99098.63;;;17.81;92.82
70103;BME280;57470;50.034;15.256;2023-07-22T01:41:38;99097.47;;;17.84;93.17
70103;BME280;57470;50.034;15.256;2023-07-22T01:44:04;99099.38;;;17.91;93.30
70103;BME280;57470;50.034;15.256;2023-07-22T01:46:29;99103.06;;;17.90;92.93
70103;BME280;57470;50.034;15.256;2023-07-22T01:48:55;99114.34;;;17.94;92.62
70103;BME280;57470;50.034;15.256;2023-07-22T01:51:21;99106.16;;;17.70;94.01
70103;BME280;57470;50.034;15.256;2023-07-22T01:53:46;99108.41;;;17.82;93.91
70103;BME280;57470;50.034;15.256;2023-07-22T01:56:12;99109.03;;;17.76;94.32
70103;BME280;57470;50.034;15.256;2023-07-22T01:58:38;99105.72;;;17.82;94.03
70103;BME280;57470;50.034;15.256;2023-07-22T02:01:03;99110.31;;;17.64;94.34
70103;BME280;57470;50.034;15.256;2023-07-22T02:03:29;99112.03;;;17.73;94.26
70103;BME280;57470;50.034;15.256;2023-07-22T02:06:01;99117.53;;;17.63;94.16
70103;BME280;57470;50.034;15.256;2023-07-22T02:08:28;99110.34;;;17.72;94.16
70103;BME280;57470;50.034;15.256;2023-07-22T02:10:53;99111.75;;;17.58;94.09
70103;BME280;57470;50.034;15.256;2023-07-22T02:13:18;99114.44;;;17.76;92.98
70103;BME280;57470;50.034;15.256;2023-07-22T02:15:44;99117.38;;;17.65;93.17
70103;BME280;57470;50.034;15.256;2023-07-22T02:18:09;99111.75;;;17.76;93.32
70103;BME280;57470;50.034;15.256;2023-07-22T02:20:35;99112.09;;;17.12;94.26
70103;BME280;57470;50.034;15.256;2023-07-22T02:23:00;99106.91;;;17.18;96.68
70103;BME280;57470;50.034;15.256;2023-07-22T02:25:25;99111.22;;;17.29;95.14
70103;BME280;57470;50.034;15.256;2023-07-22T02:27:51;99114.56;;;17.49;94.70
70103;BME280;57470;50.034;15.256;2023-07-22T02:30:16;99111.19;;;17.47;93.48
70103;BME280;57470;50.034;15.256;2023-07-22T02:32:42;99108.13;;;17.42;94.16
70103;BME280;57470;50.034;15.256;2023-07-22T02:35:08;99109.56;;;17.36;94.54
70103;BME280;57470;50.034;15.256;2023-07-22T02:37:37;99106.22;;;17.34;94.57
70103;BME280;57470;50.034;15.256;2023-07-22T02:40:03;99113.13;;;17.37;93.75
70103;BME280;57470;50.034;15.256;2023-07-22T02:42:39;99119.03;;;17.40;93.73
70103;BME280;57470;50.034;15.256;2023-07-22T02:45:05;99122.63;;;17.49;92.93
70103;BME280;57470;50.034;15.256;2023-07-22T02:47:32;99121.09;;;17.46;93.04
70103;BME280;57470;50.034;15.256;2023-07-22T02:49:58;99130.59;;;17.58;92.15
70103;BME280;57470;50.034;15.256;2023-07-22T02:52:23;99125.66;;;17.28;93.07
70103;BME280;57470;50.034;15.256;2023-07-22T02:55:12;99131.31;;;17.43;92.41
70103;BME280;57470;50.034;15.256;2023-07-22T02:57:38;99141.56;;;17.21;92.39
70103;BME280;57470;50.034;15.256;2023-07-22T03:00:04;99134.34;;;17.22;92.73
70103;BME280;57470;50.034;15.256;2023-07-22T03:02:32;99133.56;;;17.30;92.52
70103;BME280;57470;50.034;15.256;2023-07-22T03:04:58;99148.69;;;17.31;92.00
70103;BME280;57470;50.034;15.256;2023-07-22T03:07:23;99147.16;;;17.28;92.18
70103;BME280;57470;50.034;15.256;2023-07-22T03:09:52;99150.41;;;17.14;92.57
70103;BME280;57470;50.034;15.256;2023-07-22T03:12:18;99157.53;;;17.23;92.38
70103;BME280;57470;50.034;15.256;2023-07-22T03:14:43;99151.19;;;17.06;93.00
70103;BME280;57470;50.034;15.256;2023-07-22T03:17:08;99160.00;;;16.99;93.84
70103;BME280;57470;50.034;15.256;2023-07-22T03:19:34;99163.22;;;17.02;93.35
70103;BME280;57470;50.034;15.256;2023-07-22T03:22:00;99170.34;;;17.11;92.63
70103;BME280;57470;50.034;15.256;2023-07-22T03:24:25;99169.91;;;17.34;91.96
70103;BME280;57470;50.034;15.256;2023-07-22T03:26:50;99174.13;;;17.18;92.03
70103;BME280;57470;50.034;15.256;2023-07-22T03:29:16;99178.41;;;16.94;92.50
70103;BME280;57470;50.034;15.256;2023-07-22T03:31:41;99181.03;;;17.03;93.14
70103;BME280;57470;50.034;15.256;2023-07-22T03:34:06;99186.19;;;17.14;92.12
70103;BME280;57470;50.034;15.256;2023-07-22T03:36:32;99193.25;;;17.15;91.94
70103;BME280;57470;50.034;15.256;2023-07-22T03:39:01;99194.41;;;17.13;91.70
70103;BME280;57470;50.034;15.256;2023-07-22T03:41:26;99191.34;;;16.90;93.01
70103;BME280;57470;50.034;15.256;2023-07-22T03:43:52;99180.88;;;17.05;92.56
70103;BME280;57470;50.034;15.256;2023-07-22T03:46:17;99201.91;;;17.09;91.99
70103;BME280;57470;50.034;15.256;2023-07-22T03:48:42;99199.97;;;16.84;93.26
70103;BME280;57470;50.034;15.256;2023-07-22T03:51:08;99196.47;;;17.01;92.12
70103;BME280;57470;50.034;15.256;2023-07-22T03:53:33;99202.75;;;17.10;92.92
70103;BME280;57470;50.034;15.256;2023-07-22T03:55:58;99204.59;;;17.09;92.29
70103;BME280;57470;50.034;15.256;2023-07-22T03:58:24;99202.38;;;17.22;92.28
70103;BME280;57470;50.034;15.256;2023-07-22T04:00:49;99206.81;;;17.49;91.90
70103;BME280;57470;50.034;15.256;2023-07-22T04:03:15;99209.53;;;17.67;91.67
70103;BME280;57470;50.034;15.256;2023-07-22T04:05:40;99214.97;;;17.75;91.67
70103;BME280;57470;50.034;15.256;2023-07-22T04:08:06;99213.22;;;17.92;90.91
70103;BME280;57470;50.034;15.256;2023-07-22T04:10:31;99214.59;;;18.22;89.20
70103;BME280;57470;50.034;15.256;2023-07-22T04:12:56;99221.75;;;18.05;88.82
70103;BME280;57470;50.034;15.256;2023-07-22T04:15:22;99233.94;;;18.51;89.65
70103;BME280;57470;50.034;15.256;2023-07-22T04:17:47;99231.78;;;18.29;89.86
70103;BME280;57470;50.034;15.256;2023-07-22T04:20:13;99233.19;;;18.33;89.57
70103;BME280;57470;50.034;15.256;2023-07-22T04:22:38;99239.69;;;18.56;88.56
70103;BME280;57470;50.034;15.256;2023-07-22T04:25:04;99237.91;;;18.39;87.95
70103;BME280;57470;50.034;15.256;2023-07-22T04:27:30;99244.63;;;18.61;87.77
70103;BME280;57470;50.034;15.256;2023-07-22T04:29:55;99242.50;;;18.81;88.35
70103;BME280;57470;50.034;15.256;2023-07-22T04:32:21;99242.75;;;19.03;86.76
70103;BME280;57470;50.034;15.256;2023-07-22T04:34:46;99246.34;;;19.36;86.38
70103;BME280;57470;50.034;15.256;2023-07-22T04:37:12;99248.00;;;19.05;89.30
70103;BME280;57470;50.034;15.256;2023-07-22T04:39:38;99254.59;;;19.27;84.76
70103;BME280;57470;50.034;15.256;2023-07-22T04:42:03;99250.91;;;19.44;84.85
70103;BME280;57470;50.034;15.256;2023-07-22T04:44:29;99243.81;;;19.27;84.26
70103;BME280;57470;50.034;15.256;2023-07-22T04:46:54;99250.06;;;19.35;84.25
70103;BME280;57470;50.034;15.256;2023-07-22T04:49:20;99243.25;;;19.07;84.25
70103;BME280;57470;50.034;15.256;2023-07-22T04:51:47;99244.03;;;18.49;85.12
70103;BME280;57470;50.034;15.256;2023-07-22T04:54:13;99250.72;;;18.71;85.32
70103;BME280;57470;50.034;15.256;2023-07-22T04:56:39;99253.53;;;18.61;85.12
70103;BME280;57470;50.034;15.256;2023-07-22T04:59:04;99255.00;;;18.56;84.24
70103;BME280;57470;50.034;15.256;2023-07-22T05:01:29;99253.53;;;18.61;85.93
70103;BME280;57470;50.034;15.256;2023-07-22T05:03:55;99259.19;;;18.50;85.18
70103;BME280;57470;50.034;15.256;2023-07-22T05:06:21;99263.50;;;18.61;85.76
70103;BME280;57470;50.034;15.256;2023-07-22T05:08:46;99269.53;;;18.63;85.69
70103;BME280;57470;50.034;15.256;2023-07-22T05:11:11;99273.81;;;18.82;84.89
70103;BME280;57470;50.034;15.256;2023-07-22T05:13:37;99270.63;;;18.52;86.12
70103;BME280;57470;50.034;15.256;2023-07-22T05:16:03;99277.97;;;18.60;85.63
70103;BME280;57470;50.034;15.256;2023-07-22T05:18:29;99281.84;;;18.65;86.12
70103;BME280;57470;50.034;15.256;2023-07-22T05:20:54;99277.31;;;18.66;86.63
70103;BME280;57470;50.034;15.256;2023-07-22T05:23:19;99292.41;;;18.93;85.69
70103;BME280;57470;50.034;15.256;2023-07-22T05:25:51;99291.88;;;18.89;85.92
70103;BME280;57470;50.034;15.256;2023-07-22T05:28:17;99293.34;;;18.76;85.80
70103;BME280;57470;50.034;15.256;2023-07-22T05:30:42;99298.41;;;19.21;84.60
70103;BME280;57470;50.034;15.256;2023-07-22T05:33:08;99285.28;;;18.84;84.96
70103;BME280;57470;50.034;15.256;2023-07-22T05:35:33;99298.69;;;19.09;85.08
70103;BME280;57470;50.034;15.256;2023-07-22T05:37:58;99296.00;;;19.09;83.71
70103;BME280;57470;50.034;15.256;2023-07-22T05:40:24;99297.06;;;19.33;83.70
70103;BME280;57470;50.034;15.256;2023-07-22T05:42:50;99291.03;;;19.39;82.27
70103;BME280;57470;50.034;15.256;2023-07-22T05:45:15;99294.47;;;19.73;81.29
70103;BME280;57470;50.034;15.256;2023-07-22T05:47:41;99290.75;;;19.58;80.92
70103;BME280;57470;50.034;15.256;2023-07-22T05:50:07;99289.56;;;19.61;80.19
70103;BME280;57470;50.034;15.256;2023-07-22T05:52:32;99298.97;;;19.40;81.26
70103;BME280;57470;50.034;15.256;2023-07-22T05:54:58;99294.16;;;19.93;81.35
70103;BME280;57470;50.034;15.256;2023-07-22T05:57:23;99298.69;;;19.09;83.10
70103;BME280;57470;50.034;15.256;2023-07-22T05:59:49;99298.72;;;19.84;80.87
70103;BME280;57470;50.034;15.256;2023-07-22T06:02:14;99303.75;;;19.71;81.28
70103;BME280;57470;50.034;15.256;2023-07-22T06:04:39;99298.72;;;19.92;79.92
70103;BME280;57470;50.034;15.256;2023-07-22T06:07:05;99290.94;;;19.97;80.34
70103;BME280;57470;50.034;15.256;2023-07-22T06:09:30;99291.28;;;20.02;79.29
70103;BME280;57470;50.034;15.256;2023-07-22T06:11:56;99292.78;;;20.37;79.83
70103;BME280;57470;50.034;15.256;2023-07-22T06:14:21;99293.94;;;20.43;79.37
70103;BME280;57470;50.034;15.256;2023-07-22T06:16:46;99292.47;;;19.92;80.46
70103;BME280;57470;50.034;15.256;2023-07-22T06:19:12;99302.25;;;20.01;80.00
70103;BME280;57470;50.034;15.256;2023-07-22T06:21:37;99300.25;;;19.20;81.66
70103;BME280;57470;50.034;15.256;2023-07-22T06:24:02;99294.47;;;19.57;78.77
70103;BME280;57470;50.034;15.256;2023-07-22T06:26:28;99297.19;;;20.22;79.23
70103;BME280;57470;50.034;15.256;2023-07-22T06:28:53;99294.97;;;20.26;77.50
70103;BME280;57470;50.034;15.256;2023-07-22T06:31:19;99295.00;;;20.01;79.26
70103;BME280;57470;50.034;15.256;2023-07-22T06:33:44;99299.19;;;20.20;77.46
70103;BME280;57470;50.034;15.256;2023-07-22T06:36:09;99306.94;;;20.55;78.06
70103;BME280;57470;50.034;15.256;2023-07-22T06:38:35;99306.13;;;20.39;77.46
70103;BME280;57470;50.034;15.256;2023-07-22T06:41:00;99311.50;;;20.55;77.11
70103;BME280;57470;50.034;15.256;2023-07-22T06:43:26;99317.25;;;19.87;77.91
70103;BME280;57470;50.034;15.256;2023-07-22T06:45:52;99312.53;;;20.21;77.00
70103;BME280;57470;50.034;15.256;2023-07-22T06:48:18;99322.81;;;20.50;77.21
70103;BME280;57470;50.034;15.256;2023-07-22T06:50:49;99318.91;;;20.53;77.40
70103;BME280;57470;50.034;15.256;2023-07-22T06:53:15;99314.19;;;20.22;76.07
70103;BME280;57470;50.034;15.256;2023-07-22T06:55:48;99307.09;;;20.54;74.49
70103;BME280;57470;50.034;15.256;2023-07-22T06:58:14;99310.34;;;20.17;77.99
70103;BME280;57470;50.034;15.256;2023-07-22T07:00:40;99310.06;;;20.83;75.97
70103;BME280;57470;50.034;15.256;2023-07-22T07:03:05;99314.88;;;21.04;73.02
70103;BME280;57470;50.034;15.256;2023-07-22T07:05:34;99299.44;;;20.74;71.02
70103;BME280;57470;50.034;15.256;2023-07-22T07:08:00;99302.03;;;20.51;70.77
70103;BME280;57470;50.034;15.256;2023-07-22T07:10:25;99305.28;;;20.38;70.65
70103;BME280;57470;50.034;15.256;2023-07-22T07:12:51;99311.16;;;20.50;71.10
70103;BME280;57470;50.034;15.256;2023-07-22T07:15:16;99303.75;;;20.44;69.86
70103;BME280;57470;50.034;15.256;2023-07-22T07:17:42;99319.59;;;20.63;71.60
70103;BME280;57470;50.034;15.256;2023-07-22T07:20:07;99298.91;;;20.78;70.42
70103;BME280;57470;50.034;15.256;2023-07-22T07:22:33;99314.78;;;20.81;72.74
70103;BME280;57470;50.034;15.256;2023-07-22T07:24:58;99316.34;;;21.15;70.89
70103;BME280;57470;50.034;15.256;2023-07-22T07:27:24;99310.06;;;21.22;71.35
70103;BME280;57470;50.034;15.256;2023-07-22T07:29:49;99317.69;;;21.27;71.56
70103;BME280;57470;50.034;15.256;2023-07-22T07:32:14;99313.53;;;21.39;69.86
70103;BME280;57470;50.034;15.256;2023-07-22T07:34:40;99325.69;;;21.43;69.92
70103;BME280;57470;50.034;15.256;2023-07-22T07:37:06;99325.47;;;21.76;67.04
70103;BME280;57470;50.034;15.256;2023-07-22T07:39:31;99320.41;;;21.50;67.67
70103;BME280;57470;50.034;15.256;2023-07-22T07:41:56;99316.72;;;21.20;68.37
70103;BME280;57470;50.034;15.256;2023-07-22T07:44:22;99314.34;;;21.09;69.47
70103;BME280;57470;50.034;15.256;2023-07-22T07:46:50;99313.84;;;21.44;66.91
70103;BME280;57470;50.034;15.256;2023-07-22T07:49:17;99306.72;;;21.20;67.94
70103;BME280;57470;50.034;15.256;2023-07-22T07:51:43;99320.44;;;21.19;68.47
70103;BME280;57470;50.034;15.256;2023-07-22T07:54:08;99313.13;;;21.50;65.46
70103;BME280;57470;50.034;15.256;2023-07-22T07:56:34;99309.53;;;21.58;66.20
70103;BME280;57470;50.034;15.256;2023-07-22T07:58:59;99335.06;;;21.86;66.46
70103;BME280;57470;50.034;15.256;2023-07-22T08:01:24;99333.25;;;21.56;67.66
70103;BME280;57470;50.034;15.256;2023-07-22T08:03:50;99329.41;;;21.42;66.99
70103;BME280;57470;50.034;15.256;2023-07-22T08:06:15;99330.13;;;21.90;66.89
70103;BME280;57470;50.034;15.256;2023-07-22T08:08:41;99338.97;;;21.84;67.21
70103;BME280;57470;50.034;15.256;2023-07-22T08:11:11;99343.28;;;22.01;67.38
70103;BME280;57470;50.034;15.256;2023-07-22T08:13:39;99334.63;;;22.20;66.89
70103;BME280;57470;50.034;15.256;2023-07-22T08:16:08;99332.94;;;21.96;64.74
70103;BME280;57470;50.034;15.256;2023-07-22T08:18:34;99331.41;;;22.02;66.17
70103;BME280;57470;50.034;15.256;2023-07-22T08:21:04;99343.34;;;22.30;66.91
70103;BME280;57470;50.034;15.256;2023-07-22T08:23:32;99350.81;;;22.28;65.36
70103;BME280;57470;50.034;15.256;2023-07-22T08:25:58;99340.81;;;21.83;67.23
70103;BME280;57470;50.034;15.256;2023-07-22T08:28:23;99336.50;;;22.20;67.28
70103;BME280;57470;50.034;15.256;2023-07-22T08:30:49;99353.91;;;22.25;68.33
70103;BME280;57470;50.034;15.256;2023-07-22T08:33:14;99350.56;;;21.69;68.18
70103;BME280;57470;50.034;15.256;2023-07-22T08:35:44;99341.81;;;22.13;67.38
70103;BME280;57470;50.034;15.256;2023-07-22T08:38:10;99335.66;;;21.74;65.77
70103;BME280;57470;50.034;15.256;2023-07-22T08:40:37;99338.44;;;21.88;66.62
70103;BME280;57470;50.034;15.256;2023-07-22T08:43:06;99332.56;;;22.07;66.68
70103;BME280;57470;50.034;15.256;2023-07-22T08:45:34;99337.78;;;22.46;64.44
70103;BME280;57470;50.034;15.256;2023-07-22T08:48:10;99329.41;;;22.71;64.36
70103;BME280;57470;50.034;15.256;2023-07-22T08:50:49;99344.13;;;22.91;63.65
70103;BME280;57470;50.034;15.256;2023-07-22T08:53:15;99355.81;;;22.77;65.83
70103;BME280;57470;50.034;15.256;2023-07-22T08:55:54;99343.88;;;22.49;66.30
70103;BME280;57470;50.034;15.256;2023-07-22T08:58:20;99338.88;;;22.75;65.70
70103;BME280;57470;50.034;15.256;2023-07-22T09:00:50;99339.94;;;22.36;64.33
70103;BME280;57470;50.034;15.256;2023-07-22T09:03:16;99325.44;;;22.81;65.19
70103;BME280;57470;50.034;15.256;2023-07-22T09:05:43;99339.81;;;22.82;64.24
70103;BME280;57470;50.034;15.256;2023-07-22T09:08:10;99348.91;;;23.04;64.59
70103;BME280;57470;50.034;15.256;2023-07-22T09:10:37;99326.69;;;22.71;63.83
70103;BME280;57470;50.034;15.256;2023-07-22T09:13:03;99340.44;;;22.69;63.01
70103;BME280;57470;50.034;15.256;2023-07-22T09:15:29;99349.19;;;22.79;64.07
70103;BME280;57470;50.034;15.256;2023-07-22T09:17:57;99345.81;;;22.92;63.18
70103;BME280;57470;50.034;15.256;2023-07-22T09:20:22;99340.44;;;23.28;62.45
70103;BME280;57470;50.034;15.256;2023-07-22T09:22:52;99347.84;;;23.19;62.53
70103;BME280;57470;50.034;15.256;2023-07-22T09:25:20;99340.38;;;23.07;59.40
70103;BME280;57470;50.034;15.256;2023-07-22T09:27:50;99349.31;;;23.37;61.70
70103;BME280;57470;50.034;15.256;2023-07-22T09:30:30;99358.28;;;23.67;61.07
70103;BME280;57470;50.034;15.256;2023-07-22T09:32:59;99345.41;;;23.75;60.72
70103;BME280;57470;50.034;15.256;2023-07-22T09:35:27;99344.03;;;23.65;60.89
70103;BME280;57470;50.034;15.256;2023-07-22T09:37:54;99345.03;;;23.28;62.42
70103;BME280;57470;50.034;15.256;2023-07-22T09:40:24;99346.44;;;23.53;61.07
70103;BME280;57470;50.034;15.256;2023-07-22T09:42:55;99344.09;;;23.20;62.53
70103;BME280;57470;50.034;15.256;2023-07-22T09:45:25;99344.22;;;22.83;60.70
70103;BME280;57470;50.034;15.256;2023-07-22T09:47:52;99347.00;;;22.75;60.65
70103;BME280;57470;50.034;15.256;2023-07-22T09:50:19;99347.69;;;23.06;60.44
70103;BME280;57470;50.034;15.256;2023-07-22T09:52:54;99350.16;;;23.37;61.32
70103;BME280;57470;50.034;15.256;2023-07-22T09:55:27;99337.72;;;23.43;59.81
70103;BME280;57470;50.034;15.256;2023-07-22T09:57:55;99343.78;;;23.45;59.22
70103;BME280;57470;50.034;15.256;2023-07-22T10:00:23;99349.34;;;23.22;59.34
70103;BME280;57470;50.034;15.256;2023-07-22T10:02:50;99343.13;;;23.58;60.30
70103;BME280;57470;50.034;15.256;2023-07-22T10:05:20;99339.09;;;23.53;59.96
70103;BME280;57470;50.034;15.256;2023-07-22T10:07:51;99348.78;;;23.77;60.05
70103;BME280;57470;50.034;15.256;2023-07-22T10:10:19;99338.44;;;24.09;59.26
70103;BME280;57470;50.034;15.256;2023-07-22T10:12:45;99330.69;;;23.84;58.59
70103;BME280;57470;50.034;15.256;2023-07-22T10:15:13;99330.41;;;23.58;58.29
70103;BME280;57470;50.034;15.256;2023-07-22T10:17:43;99336.47;;;23.60;59.02
70103;BME280;57470;50.034;15.256;2023-07-22T10:20:11;99326.66;;;23.80;57.06
70103;BME280;57470;50.034;15.256;2023-07-22T10:22:44;99301.19;;;23.81;58.80
70103;BME280;57470;50.034;15.256;2023-07-22T10:25:16;99312.44;;;24.21;58.52
70103;BME280;57470;50.034;15.256;2023-07-22T10:27:42;99308.16;;;23.90;57.32
70103;BME280;57470;50.034;15.256;2023-07-22T10:30:08;99303.63;;;24.19;57.86
70103;BME280;57470;50.034;15.256;2023-07-22T10:32:39;99309.00;;;24.34;56.85
70103;BME280;57470;50.034;15.256;2023-07-22T10:35:08;99298.75;;;24.36;57.58
70103;BME280;57470;50.034;15.256;2023-07-22T10:37:35;99297.94;;;23.71;57.26
70103;BME280;57470;50.034;15.256;2023-07-22T10:42:54;99309.31;;;23.45;58.46
70103;BME280;57470;50.034;15.256;2023-07-22T10:45:49;99315.16;;;23.42;57.13
70103;BME280;57470;50.034;15.256;2023-07-22T10:48:14;99319.34;;;23.45;58.31
70103;BME280;57470;50.034;15.256;2023-07-22T10:50:52;99320.75;;;23.05;57.82
70103;BME280;57470;50.034;15.256;2023-07-22T10:53:28;99319.81;;;23.48;58.26
70103;BME280;57470;50.034;15.256;2023-07-22T10:56:06;99315.09;;;23.21;59.57
70103;BME280;57470;50.034;15.256;2023-07-22T11:01:22;99322.00;;;23.74;59.10
70103;BME280;57470;50.034;15.256;2023-07-22T11:06:32;99320.56;;;23.57;58.79
70103;BME280;57470;50.034;15.256;2023-07-22T11:08:58;99323.09;;;23.59;57.60
70103;BME280;57470;50.034;15.256;2023-07-22T11:11:40;99315.41;;;23.47;58.04
70103;BME280;57470;50.034;15.256;2023-07-22T11:14:22;99323.22;;;23.72;58.61
70103;BME280;57470;50.034;15.256;2023-07-22T11:16:48;99316.63;;;23.45;57.67
70103;BME280;57470;50.034;15.256;2023-07-22T11:19:15;99325.63;;;23.60;57.84
70103;BME280;57470;50.034;15.256;2023-07-22T11:21:42;99319.16;;;23.46;58.07
70103;BME280;57470;50.034;15.256;2023-07-22T11:24:08;99311.13;;;23.53;57.94
70103;BME280;57470;50.034;15.256;2023-07-22T11:26:34;99313.19;;;23.36;58.21
70103;BME280;57470;50.034;15.256;2023-07-22T11:29:00;99315.28;;;23.34;58.53
70103;BME280;57470;50.034;15.256;2023-07-22T11:31:34;99312.06;;;23.60;57.76
70103;BME280;57470;50.034;15.256;2023-07-22T11:34:02;99310.72;;;23.71;58.17
70103;BME280;57470;50.034;15.256;2023-07-22T11:36:28;99310.31;;;23.95;56.87
70103;BME280;57470;50.034;15.256;2023-07-22T11:39:01;99307.00;;;24.00;56.61
70103;BME280;57470;50.034;15.256;2023-07-22T11:41:26;99315.28;;;24.13;57.90
70103;BME280;57470;50.034;15.256;2023-07-22T11:43:52;99307.19;;;24.41;56.95
70103;BME280;57470;50.034;15.256;2023-07-22T11:46:17;99300.56;;;24.50;55.88
70103;BME280;57470;50.034;15.256;2023-07-22T11:48:50;99293.81;;;24.80;55.68
70103;BME280;57470;50.034;15.256;2023-07-22T11:51:25;99292.75;;;24.75;55.27
70103;BME280;57470;50.034;15.256;2023-07-22T11:53:52;99294.16;;;24.64;55.18
70103;BME280;57470;50.034;15.256;2023-07-22T11:56:28;99285.28;;;24.83;54.33
70103;BME280;57470;50.034;15.256;2023-07-22T11:58:55;99289.16;;;25.02;54.93
70103;BME280;57470;50.034;15.256;2023-07-22T12:01:21;99283.44;;;25.38;53.99
70103;BME280;57470;50.034;15.256;2023-07-22T12:03:47;99284.75;;;25.49;54.02
70103;BME280;57470;50.034;15.256;2023-07-22T12:06:13;99277.69;;;25.87;53.39
70103;BME280;57470;50.034;15.256;2023-07-22T12:08:46;99281.63;;;25.58;52.91
70103;BME280;57470;50.034;15.256;2023-07-22T12:11:23;99267.88;;;25.12;54.38
70103;BME280;57470;50.034;15.256;2023-07-22T12:14:07;99278.16;;;24.89;54.37
70103;BME280;57470;50.034;15.256;2023-07-22T12:16:35;99279.16;;;24.75;54.19
70103;BME280;57470;50.034;15.256;2023-07-22T12:19:02;99273.56;;;24.89;53.98
70103;BME280;57470;50.034;15.256;2023-07-22T12:21:27;99286.00;;;24.64;53.91
70103;BME280;57470;50.034;15.256;2023-07-22T12:23:53;99282.13;;;24.52;54.05
70103;BME280;57470;50.034;15.256;2023-07-22T12:26:18;99276.66;;;24.80;54.26
70103;BME280;57470;50.034;15.256;2023-07-22T12:28:44;99273.94;;;24.80;54.17
70103;BME280;57470;50.034;15.256;2023-07-22T12:31:09;99270.69;;;24.56;54.34
70103;BME280;57470;50.034;15.256;2023-07-22T12:33:35;99280.25;;;24.52;54.51
70103;BME280;57470;50.034;15.256;2023-07-22T12:36:00;99277.97;;;24.49;54.46
70103;BME280;57470;50.034;15.256;2023-07-22T12:38:25;99271.53;;;24.91;54.60
70103;BME280;57470;50.034;15.256;2023-07-22T12:40:54;99250.09;;;24.19;53.96
70103;BME280;57470;50.034;15.256;2023-07-22T12:43:19;99265.78;;;24.45;54.59
70103;BME280;57470;50.034;15.256;2023-07-22T12:45:45;99255.41;;;24.55;53.80
70103;BME280;57470;50.034;15.256;2023-07-22T12:48:10;99236.63;;;24.60;53.65
70103;BME280;57470;50.034;15.256;2023-07-22T12:50:35;99254.88;;;24.73;53.79
70103;BME280;57470;50.034;15.256;2023-07-22T12:53:01;99237.22;;;24.62;53.38
70103;BME280;57470;50.034;15.256;2023-07-22T12:55:28;99252.78;;;25.16;53.91
70103;BME280;57470;50.034;15.256;2023-07-22T12:57:53;99249.66;;;25.13;53.22